createdAt,value
2022-09-04T00:14:54.817Z,99.90
2022-09-04T00:38:20.815Z,99.90
2022-09-04T00:50:18.843Z,99.90
2022-09-04T00:53:17.853Z,99.90
2022-09-04T01:01:40.271Z,99.90
2022-09-04T01:10:43.851Z,99.90
2022-09-04T01:13:51.838Z,99.90
2022-09-04T01:29:22.831Z,99.90
2022-09-04T01:43:28.842Z,99.90
2022-09-04T02:00:21.858Z,99.90
2022-09-04T02:03:37.863Z,99.90
2022-09-04T02:12:33.890Z,99.90
2022-09-04T02:15:49.870Z,99.90
2022-09-04T02:21:49.869Z,99.90
2022-09-04T02:36:28.862Z,99.90
2022-09-04T02:39:31.014Z,99.90
2022-09-04T02:51:13.947Z,99.90
2022-09-04T02:59:56.886Z,99.90
2022-09-04T03:11:37.917Z,99.90
2022-09-04T03:22:57.993Z,99.90
2022-09-04T04:22:42.944Z,99.90
2022-09-04T04:32:14.902Z,99.90
2022-09-04T04:52:14.941Z,99.90
2022-09-04T04:55:01.065Z,99.90
2022-09-04T04:58:12.936Z,99.90
2022-09-04T05:01:03.167Z,99.90
2022-09-04T05:13:12.937Z,99.90
2022-09-04T05:16:33.989Z,99.90
2022-09-04T05:20:08.954Z,99.90
2022-09-04T05:23:00.950Z,99.90
2022-09-04T05:25:46.804Z,99.90
2022-09-04T05:29:03.969Z,99.90
2022-09-04T05:32:02.145Z,99.90
2022-09-04T05:35:04.967Z,98.80
2022-09-04T05:37:48.659Z,95.90
2022-09-04T05:40:42.964Z,94.60
2022-09-04T05:43:22.497Z,90.20
2022-09-04T05:48:51.341Z,83.70
2022-09-04T05:52:05.936Z,87.70
2022-09-04T05:55:11.200Z,90.30
2022-09-04T05:58:03.952Z,96.00
2022-09-04T06:01:08.945Z,99.90
2022-09-04T06:04:13.029Z,99.90
2022-09-04T06:07:11.967Z,99.90
2022-09-04T06:10:20.014Z,99.90
2022-09-04T06:13:14.975Z,99.90
2022-09-04T06:19:04.970Z,99.90
2022-09-04T06:22:32.003Z,99.90
2022-09-04T06:25:37.962Z,99.90
2022-09-04T06:28:34.002Z,99.90
2022-09-04T06:34:13.983Z,99.90
2022-09-04T06:37:18.071Z,99.90
2022-09-04T06:40:17.981Z,99.90
2022-09-04T06:43:00.040Z,99.90
2022-09-04T06:46:02.500Z,99.90
2022-09-04T06:48:57.975Z,99.90
2022-09-04T06:52:21.975Z,99.90
2022-09-04T06:55:28.000Z,99.90
2022-09-04T07:00:55.012Z,99.90
2022-09-04T07:03:59.080Z,99.90
2022-09-04T07:07:13.004Z,99.90
2022-09-04T07:10:07.233Z,99.90
2022-09-04T07:13:16.004Z,98.60
2022-09-04T07:16:13.037Z,96.50
2022-09-04T07:19:25.986Z,91.90
2022-09-04T07:22:37.986Z,86.10
2022-09-04T07:28:25.096Z,80.90
2022-09-04T07:31:16.229Z,77.80
2022-09-04T07:34:19.977Z,71.80
2022-09-04T07:37:11.087Z,66.10
2022-09-04T07:40:12.014Z,62.70
2022-09-04T07:46:02.070Z,58.80
2022-09-04T07:49:02.007Z,58.30
2022-09-04T07:51:44.150Z,57.70
2022-09-04T07:54:51.991Z,55.00
2022-09-04T07:57:48.073Z,56.00
2022-09-04T08:00:42.003Z,56.20
2022-09-04T08:03:31.591Z,53.90
2022-09-04T08:06:49.005Z,51.50
2022-09-04T08:10:04.032Z,52.00
2022-09-04T08:13:31.997Z,53.40
2022-09-04T08:16:45.027Z,53.20
2022-09-04T08:19:30.090Z,53.60
2022-09-04T08:22:28.171Z,53.40
2022-09-04T08:25:17.160Z,52.60
2022-09-04T08:28:42.998Z,52.40
2022-09-04T08:31:30.214Z,53.40
2022-09-04T08:34:41.001Z,53.30
2022-09-04T08:37:21.110Z,54.20
2022-09-04T08:40:18.098Z,54.90
2022-09-04T08:43:43.042Z,55.00
2022-09-04T08:46:39.250Z,54.90
2022-09-04T08:49:38.051Z,54.20
2022-09-04T08:55:21.038Z,54.30
2022-09-04T08:58:16.108Z,55.10
2022-09-04T09:01:03.081Z,55.00
2022-09-04T09:04:03.116Z,54.50
2022-09-04T09:06:59.031Z,54.80
2022-09-04T09:09:42.286Z,55.00
2022-09-04T09:12:57.057Z,53.80
2022-09-04T09:16:11.146Z,54.30
2022-09-04T09:19:23.048Z,54.20
2022-09-04T09:22:28.051Z,53.30
2022-09-04T09:25:32.110Z,52.30
2022-09-04T09:28:41.091Z,53.70
2022-09-04T09:32:15.062Z,54.60
2022-09-04T09:35:29.050Z,54.30
2022-09-04T09:38:38.063Z,54.70
2022-09-04T09:41:48.197Z,55.00
2022-09-04T09:44:49.058Z,56.10
2022-09-04T09:47:42.113Z,56.20
2022-09-04T09:50:48.059Z,55.70
2022-09-04T09:53:43.796Z,56.20
2022-09-04T09:56:55.078Z,55.60
2022-09-04T10:00:07.147Z,55.70
2022-09-04T10:03:08.066Z,55.60
2022-09-04T10:06:04.056Z,56.40
2022-09-04T10:09:16.087Z,56.80
2022-09-04T10:12:15.052Z,57.60
2022-09-04T10:14:54.141Z,58.50
2022-09-04T10:17:50.050Z,58.80
2022-09-04T10:20:35.290Z,58.70
2022-09-04T10:23:34.082Z,57.60
2022-09-04T10:26:31.824Z,56.70
2022-09-04T10:29:33.092Z,58.20
2022-09-04T10:35:34.100Z,58.00
2022-09-04T10:38:28.196Z,59.80
2022-09-04T10:41:18.090Z,60.50
2022-09-04T10:44:04.298Z,60.30
2022-09-04T10:46:59.103Z,60.50
2022-09-04T10:49:52.133Z,59.70
2022-09-04T10:53:28.575Z,58.80
2022-09-04T10:56:42.092Z,59.10
2022-09-04T10:59:37.156Z,59.80
2022-09-04T11:05:39.107Z,58.90
2022-09-04T11:08:33.098Z,58.70
2022-09-04T11:11:22.184Z,58.20
2022-09-04T11:14:14.090Z,57.30
2022-09-04T11:17:29.086Z,58.20
2022-09-04T11:20:42.119Z,59.50
2022-09-04T11:24:04.071Z,59.60
2022-09-04T11:26:54.897Z,59.10
2022-09-04T11:29:42.080Z,56.40
2022-09-04T11:35:31.102Z,56.10
2022-09-04T11:38:29.188Z,56.80
2022-09-04T11:41:44.104Z,57.30
2022-09-04T11:47:30.118Z,57.50
2022-09-04T11:50:42.693Z,58.20
2022-09-04T11:53:50.119Z,54.80
2022-09-04T11:59:38.105Z,58.90
2022-09-04T12:02:23.257Z,57.30
2022-09-04T12:05:47.120Z,55.40
2022-09-04T12:09:00.108Z,57.10
2022-09-04T12:12:30.138Z,55.50
2022-09-04T12:16:00.176Z,58.60
2022-09-04T12:21:33.117Z,61.50
2022-09-04T12:25:05.408Z,62.90
2022-09-04T12:28:31.099Z,61.90
2022-09-04T12:31:51.464Z,62.50
2022-09-04T12:35:16.120Z,61.60
2022-09-04T12:38:31.142Z,62.90
2022-09-04T12:45:00.145Z,63.90
2022-09-04T12:48:26.139Z,63.10
2022-09-04T12:54:20.124Z,62.10
2022-09-04T12:57:22.148Z,60.60
2022-09-04T13:00:16.878Z,61.90
2022-09-04T13:03:37.144Z,62.20
2022-09-04T13:06:21.216Z,62.70
2022-09-04T13:09:59.176Z,61.80
2022-09-04T13:12:57.155Z,62.40
2022-09-04T13:16:04.250Z,63.20
2022-09-04T13:19:05.186Z,62.50
2022-09-04T13:22:05.161Z,61.80
2022-09-04T13:25:22.153Z,62.40
2022-09-04T13:28:27.193Z,61.00
2022-09-04T13:31:27.264Z,61.60
2022-09-04T13:34:34.086Z,62.20
2022-09-04T13:37:31.258Z,62.20
2022-09-04T13:40:36.162Z,61.80
2022-09-04T13:43:16.245Z,61.30
2022-09-04T13:46:13.305Z,62.50
2022-09-04T13:48:59.186Z,61.30
2022-09-04T13:51:52.155Z,62.00
2022-09-04T13:54:47.195Z,62.50
2022-09-04T13:57:39.182Z,61.90
2022-09-04T14:03:09.195Z,62.10
2022-09-04T14:08:31.220Z,62.60
2022-09-04T14:11:26.285Z,61.80
2022-09-04T14:14:47.202Z,62.40
2022-09-04T14:17:34.236Z,61.40
2022-09-04T14:20:28.207Z,61.90
2022-09-04T14:23:30.273Z,62.20
2022-09-04T14:26:46.188Z,62.80
2022-09-04T14:32:41.108Z,64.00
2022-09-04T14:35:43.221Z,65.20
2022-09-04T14:38:49.397Z,65.80
2022-09-04T14:44:46.213Z,66.50
2022-09-04T14:47:45.332Z,65.80
2022-09-04T14:50:26.187Z,67.10
2022-09-04T14:53:23.220Z,67.10
2022-09-04T14:56:42.200Z,67.10
2022-09-04T14:59:44.299Z,67.70
2022-09-04T15:02:33.220Z,67.40
2022-09-04T15:06:03.241Z,66.30
2022-09-04T15:08:40.797Z,65.60
2022-09-04T15:11:45.212Z,65.80
2022-09-04T15:14:39.206Z,65.30
2022-09-04T15:17:28.382Z,64.80
2022-09-04T15:20:35.225Z,64.60
2022-09-04T15:23:38.208Z,64.50
2022-09-04T15:26:22.186Z,64.60
2022-09-04T15:29:25.237Z,65.80
2022-09-04T15:32:09.423Z,68.30
2022-09-04T15:37:36.208Z,70.10
2022-09-04T15:40:54.293Z,70.20
2022-09-04T15:43:54.211Z,71.80
2022-09-04T15:47:12.365Z,70.50
2022-09-04T15:50:36.197Z,69.60
2022-09-04T15:53:37.247Z,69.30
2022-09-04T15:56:27.219Z,70.60
2022-09-04T15:59:15.167Z,70.90
2022-09-04T16:02:02.275Z,72.00
2022-09-04T16:04:51.319Z,71.40
2022-09-04T16:08:13.247Z,70.80
2022-09-04T16:11:02.396Z,70.40
2022-09-04T16:14:00.261Z,70.60
2022-09-04T16:16:39.457Z,72.80
2022-09-04T16:19:32.267Z,74.80
2022-09-04T16:22:23.298Z,76.50
2022-09-04T16:25:35.257Z,78.00
2022-09-04T16:28:27.246Z,79.70
2022-09-04T16:31:27.268Z,81.70
2022-09-04T16:34:56.245Z,83.00
2022-09-04T16:37:48.359Z,85.10
2022-09-04T16:40:38.257Z,87.60
2022-09-04T16:43:38.261Z,88.60
2022-09-04T16:46:34.383Z,90.30
2022-09-04T16:49:29.270Z,90.90
2022-09-04T16:52:28.277Z,91.70
2022-09-04T16:55:33.268Z,92.90
2022-09-04T16:58:34.783Z,93.90
2022-09-04T17:04:15.278Z,95.20
2022-09-04T17:07:31.268Z,96.50
2022-09-04T17:10:39.285Z,97.10
2022-09-04T17:13:54.495Z,98.10
2022-09-04T17:16:54.285Z,99.50
2022-09-04T17:28:44.719Z,99.90
2022-09-04T17:29:17.548Z,99.90
2022-09-04T17:29:36.049Z,99.90
2022-09-04T17:32:58.372Z,99.90
2022-09-04T17:40:51.464Z,99.90
2022-09-04T17:40:57.003Z,99.90
2022-09-04T17:43:14.813Z,99.90
2022-09-04T17:46:02.429Z,99.90
2022-09-04T17:48:51.292Z,99.90
2022-09-04T17:51:35.681Z,99.90
2022-09-04T17:54:27.029Z,99.90
2022-09-04T17:57:16.278Z,99.90
2022-09-04T18:00:16.272Z,99.90
2022-09-04T18:02:58.389Z,99.90
2022-09-04T18:05:53.487Z,99.90
2022-09-04T18:08:55.795Z,99.90
2022-09-04T18:12:00.227Z,99.90
2022-09-04T18:15:23.044Z,99.90
2022-09-04T18:18:53.303Z,99.90
2022-09-04T18:24:38.300Z,99.90
2022-09-04T18:37:05.817Z,99.90
2022-09-04T18:37:44.085Z,99.90
2022-09-04T18:41:20.823Z,99.90
2022-09-04T18:50:24.469Z,99.90
2022-09-04T18:50:49.495Z,99.90
2022-09-04T18:54:06.341Z,99.90
2022-09-04T18:56:59.310Z,99.90
2022-09-04T18:59:45.607Z,99.90
2022-09-04T19:02:50.779Z,99.90
2022-09-04T19:05:44.431Z,99.90
2022-09-04T19:08:31.391Z,99.90
2022-09-04T19:11:20.678Z,99.90
2022-09-04T19:14:30.347Z,99.90
2022-09-04T19:17:30.269Z,99.90
2022-09-04T19:20:27.365Z,99.90
2022-09-04T19:23:15.223Z,99.90
2022-09-04T19:28:58.328Z,99.90
2022-09-04T19:31:45.471Z,99.90
2022-09-04T19:34:42.451Z,99.90
2022-09-04T19:46:16.094Z,99.90
2022-09-04T19:47:58.395Z,99.90
2022-09-04T19:53:21.408Z,99.90
2022-09-04T19:54:28.327Z,99.90
2022-09-04T19:57:38.319Z,99.90
2022-09-04T20:03:45.929Z,99.90
2022-09-04T20:06:22.676Z,99.90
2022-09-04T20:09:19.321Z,99.90
2022-09-04T20:12:17.367Z,99.90
2022-09-04T20:15:28.254Z,99.90
2022-09-04T20:18:22.353Z,99.90
2022-09-04T20:21:13.532Z,99.90
2022-09-04T20:24:11.346Z,99.90
2022-09-04T20:27:16.858Z,99.90
2022-09-04T20:30:02.347Z,99.90
2022-09-04T20:33:09.500Z,99.90
2022-09-04T20:35:55.342Z,99.90
2022-09-04T20:38:55.917Z,99.90
2022-09-04T20:41:54.347Z,99.90
2022-09-04T20:46:26.442Z,99.90
2022-09-04T20:52:42.419Z,99.90
2022-09-04T20:52:52.039Z,99.90
2022-09-04T20:54:58.535Z,99.90
2022-09-04T21:03:05.441Z,99.90
2022-09-04T21:03:18.287Z,99.90
2022-09-04T21:04:59.425Z,99.90
2022-09-04T21:07:41.439Z,99.90
2022-09-04T21:11:38.757Z,99.90
2022-09-04T21:14:12.367Z,99.90
2022-09-04T21:17:41.366Z,99.90
2022-09-04T21:20:41.846Z,99.90
2022-09-04T21:24:03.786Z,99.90
2022-09-04T21:35:22.698Z,99.90
2022-09-04T21:41:19.540Z,99.90
2022-09-04T21:44:52.417Z,99.90
2022-09-04T21:53:44.400Z,99.90
2022-09-04T22:13:18.872Z,99.90
2022-09-04T22:14:55.200Z,99.90
2022-09-04T22:20:54.123Z,99.90
2022-09-04T22:23:59.385Z,99.90
2022-09-04T22:26:57.611Z,99.90
2022-09-04T22:32:34.008Z,99.90
2022-09-04T22:38:44.375Z,99.90
2022-09-04T22:44:44.392Z,99.90
2022-09-04T22:50:49.067Z,99.90
2022-09-04T22:57:01.397Z,99.90
2022-09-04T23:15:35.414Z,99.90
